createdAt,value
2018-04-22T00:00:29.849Z,53.78
2018-04-22T00:01:32.346Z,53.82
2018-04-22T00:02:34.838Z,53.85
2018-04-22T00:03:37.329Z,53.87
2018-04-22T00:04:39.817Z,53.89
2018-04-22T00:05:42.323Z,53.89
2018-04-22T00:06:44.817Z,53.89
2018-04-22T00:07:47.300Z,53.90
2018-04-22T00:08:49.774Z,54.15
2018-04-22T00:09:52.261Z,54.07
2018-04-22T00:10:54.820Z,54.10
2018-04-22T00:11:57.309Z,54.16
2018-04-22T00:12:59.815Z,54.19
2018-04-22T00:14:02.319Z,54.28
2018-04-22T00:15:04.809Z,54.30
2018-04-22T00:16:07.307Z,54.30
2018-04-22T00:17:09.797Z,54.31
2018-04-22T00:18:12.298Z,54.32
2018-04-22T00:19:14.815Z,54.39
2018-04-22T00:20:17.299Z,54.40
2018-04-22T00:21:19.799Z,54.41
2018-04-22T00:22:22.288Z,54.40
2018-04-22T00:23:24.805Z,54.39
2018-04-22T00:24:27.300Z,54.47
2018-04-22T00:25:29.811Z,54.48
2018-04-22T00:26:32.309Z,54.46
2018-04-22T00:27:34.815Z,54.48
2018-04-22T00:28:37.292Z,54.51
2018-04-22T00:29:39.776Z,54.51
2018-04-22T00:30:42.266Z,54.50
2018-04-22T00:31:44.785Z,54.50
2018-04-22T00:32:47.267Z,54.47
2018-04-22T00:33:49.769Z,54.43
2018-04-22T00:34:52.266Z,54.47
2018-04-22T00:35:54.845Z,54.50
2018-04-22T00:36:57.340Z,54.51
2018-04-22T00:37:59.847Z,54.50
2018-04-22T00:39:02.355Z,54.51
2018-04-22T00:40:04.847Z,54.49
2018-04-22T00:41:07.385Z,54.47
2018-04-22T00:42:09.916Z,54.45
2018-04-22T00:43:12.392Z,54.44
2018-04-22T00:44:14.894Z,54.47
2018-04-22T00:45:17.417Z,54.49
2018-04-22T00:46:19.915Z,54.50
2018-04-22T00:47:22.417Z,54.47
2018-04-22T00:48:24.891Z,54.47
2018-04-22T00:49:27.395Z,54.48
2018-04-22T00:50:29.886Z,54.49
2018-04-22T00:51:32.355Z,54.49
2018-04-22T00:52:34.873Z,54.50
2018-04-22T00:53:49.147Z,54.50
2018-04-22T00:54:51.649Z,54.47
2018-04-22T00:55:54.123Z,54.45
2018-04-22T00:56:56.609Z,54.45
2018-04-22T00:57:59.140Z,54.47
2018-04-22T00:59:01.691Z,54.46
2018-04-22T01:00:04.195Z,54.47
2018-04-22T01:01:06.724Z,54.46
2018-04-22T01:02:09.347Z,54.49
2018-04-22T01:03:11.848Z,54.49
2018-04-22T01:04:14.326Z,54.46
2018-04-22T01:05:16.833Z,54.43
2018-04-22T01:06:19.308Z,54.43
2018-04-22T01:07:21.795Z,54.42
2018-04-22T01:08:24.293Z,54.42
2018-04-22T01:09:26.805Z,54.42
2018-04-22T01:10:29.293Z,54.40
2018-04-22T01:11:31.804Z,54.38
2018-04-22T01:12:34.318Z,54.38
2018-04-22T01:13:36.811Z,54.38
2018-04-22T01:14:39.279Z,54.41
2018-04-22T01:15:41.783Z,54.47
2018-04-22T01:16:44.303Z,54.50
2018-04-22T01:17:46.811Z,54.50
2018-04-22T01:18:49.321Z,54.52
2018-04-22T01:19:51.817Z,54.51
2018-04-22T01:20:54.309Z,54.62
2018-04-22T01:21:56.852Z,54.60
2018-04-22T01:22:59.343Z,54.57
2018-04-22T01:24:01.876Z,54.56
2018-04-22T01:25:04.441Z,54.60
2018-04-22T01:26:06.937Z,54.65
2018-04-22T01:27:09.450Z,54.65
2018-04-22T01:28:12.009Z,54.63
2018-04-22T01:29:14.513Z,54.61
2018-04-22T01:30:17.029Z,54.65
2018-04-22T01:31:19.591Z,54.68
2018-04-22T01:32:22.085Z,54.65
2018-04-22T01:33:24.591Z,54.64
2018-04-22T01:34:27.117Z,54.62
2018-04-22T01:35:29.620Z,54.61
2018-04-22T01:36:32.123Z,54.63
2018-04-22T01:37:34.621Z,54.63
2018-04-22T01:38:37.215Z,54.62
2018-04-22T01:39:39.759Z,54.62
2018-04-22T01:40:42.253Z,54.62
2018-04-22T01:41:44.781Z,54.63
2018-04-22T01:42:47.284Z,54.62
2018-04-22T01:43:49.796Z,54.63
2018-04-22T01:44:52.295Z,54.65
2018-04-22T01:45:54.819Z,54.66
2018-04-22T01:46:57.380Z,54.65
2018-04-22T01:47:59.877Z,54.66
2018-04-22T01:49:02.389Z,54.63
2018-04-22T01:50:04.956Z,54.62
2018-04-22T01:51:07.464Z,54.62
2018-04-22T01:52:09.979Z,54.64
2018-04-22T01:53:12.455Z,54.63
2018-04-22T01:54:14.990Z,54.69
2018-04-22T01:55:17.477Z,54.69
2018-04-22T01:56:19.965Z,54.73
2018-04-22T01:57:22.503Z,54.74
2018-04-22T01:58:25.025Z,54.75
2018-04-22T01:59:27.591Z,54.77
2018-04-22T02:00:30.148Z,54.82
2018-04-22T02:01:32.652Z,54.85
2018-04-22T02:02:35.244Z,54.84
2018-04-22T02:03:37.744Z,54.86
2018-04-22T02:04:40.257Z,54.87
2018-04-22T02:05:42.835Z,54.88
2018-04-22T02:06:45.321Z,54.85
2018-04-22T02:07:47.863Z,54.84
2018-04-22T02:08:50.339Z,54.84
2018-04-22T02:09:52.834Z,54.85
2018-04-22T02:10:55.335Z,54.85
2018-04-22T02:11:57.903Z,54.87
2018-04-22T02:13:00.460Z,54.87
2018-04-22T02:14:02.953Z,54.88
2018-04-22T02:15:05.478Z,54.89
2018-04-22T02:16:07.954Z,54.90
2018-04-22T02:17:10.435Z,54.97
2018-04-22T02:18:12.949Z,54.92
2018-04-22T02:19:15.459Z,54.91
2018-04-22T02:20:18.050Z,54.90
2018-04-22T02:21:20.632Z,54.93
2018-04-22T02:22:23.193Z,54.92
2018-04-22T02:23:25.750Z,54.93
2018-04-22T02:24:28.245Z,54.94
2018-04-22T02:25:30.767Z,54.94
2018-04-22T02:26:33.329Z,54.97
2018-04-22T02:27:35.833Z,54.97
2018-04-22T02:28:38.339Z,54.97
2018-04-22T02:29:40.903Z,54.95
2018-04-22T02:30:43.466Z,54.93
2018-04-22T02:31:45.953Z,54.97
2018-04-22T02:32:48.445Z,55.01
2018-04-22T02:33:50.949Z,54.99
2018-04-22T02:34:53.449Z,55.01
2018-04-22T02:35:55.957Z,55.00
2018-04-22T02:36:58.461Z,54.95
2018-04-22T02:38:00.975Z,54.95
2018-04-22T02:39:03.492Z,54.92
2018-04-22T02:40:06.100Z,54.89
2018-04-22T02:41:08.657Z,54.85
2018-04-22T02:42:11.212Z,54.85
2018-04-22T02:43:13.777Z,54.84
2018-04-22T02:44:16.335Z,54.83
2018-04-22T02:45:18.938Z,54.84
2018-04-22T02:46:21.460Z,54.86
2018-04-22T02:47:23.956Z,54.87
2018-04-22T02:48:26.472Z,54.87
2018-04-22T02:49:29.043Z,54.89
2018-04-22T02:50:31.551Z,54.91
2018-04-22T02:51:34.076Z,54.95
2018-04-22T02:52:36.613Z,54.96
2018-04-22T02:53:39.091Z,54.97
2018-04-22T02:54:41.627Z,54.95
2018-04-22T02:55:44.118Z,54.93
2018-04-22T02:56:46.648Z,54.93
2018-04-22T02:57:49.159Z,54.95
2018-04-22T02:58:51.662Z,54.96
2018-04-22T02:59:54.149Z,54.97
2018-04-22T03:00:56.685Z,54.97
2018-04-22T03:01:59.246Z,55.00
2018-04-22T03:03:01.749Z,55.01
2018-04-22T03:04:04.263Z,54.98
2018-04-22T03:05:06.824Z,54.98
2018-04-22T03:06:09.298Z,54.98
2018-04-22T03:07:11.835Z,55.01
2018-04-22T03:08:14.399Z,55.02
2018-04-22T03:09:16.919Z,55.01
2018-04-22T03:10:19.413Z,54.98
2018-04-22T03:11:21.974Z,54.99
2018-04-22T03:12:24.537Z,55.02
2018-04-22T03:13:27.095Z,55.03
2018-04-22T03:14:29.600Z,55.02
2018-04-22T03:15:32.101Z,55.05
2018-04-22T03:16:34.651Z,55.07
2018-04-22T03:17:37.180Z,55.05
2018-04-22T03:18:39.692Z,55.04
2018-04-22T03:19:42.255Z,55.04
2018-04-22T03:20:44.808Z,55.07
2018-04-22T03:21:47.297Z,55.07
2018-04-22T03:22:49.815Z,55.05
2018-04-22T03:23:52.316Z,55.04
2018-04-22T03:24:54.845Z,55.04
2018-04-22T03:25:57.406Z,55.03
2018-04-22T03:26:59.916Z,55.04
2018-04-22T03:28:02.440Z,55.08
2018-04-22T03:29:04.984Z,55.21
2018-04-22T03:30:07.468Z,55.25
2018-04-22T03:31:09.949Z,55.23
2018-04-22T03:32:12.458Z,55.26
2018-04-22T03:33:15.024Z,55.26
2018-04-22T03:34:17.578Z,55.23
2018-04-22T03:35:20.065Z,55.22
2018-04-22T03:36:22.600Z,55.23
2018-04-22T03:37:25.160Z,55.21
2018-04-22T03:38:27.720Z,55.23
2018-04-22T03:39:30.220Z,55.25
2018-04-22T03:40:32.686Z,55.23
2018-04-22T03:41:35.183Z,55.24
2018-04-22T03:42:37.678Z,55.25
2018-04-22T03:43:40.207Z,55.25
2018-04-22T03:44:42.698Z,55.25
2018-04-22T03:45:45.223Z,55.23
2018-04-22T03:46:47.699Z,55.25
2018-04-22T03:47:50.193Z,55.31
2018-04-22T03:48:52.696Z,55.33
2018-04-22T03:49:55.185Z,55.35
2018-04-22T03:50:57.726Z,55.33
2018-04-22T03:52:00.286Z,55.31
2018-04-22T03:53:02.847Z,55.29
2018-04-22T03:54:05.336Z,55.34
2018-04-22T03:55:07.862Z,55.32
2018-04-22T03:56:10.338Z,55.33
2018-04-22T03:57:12.880Z,55.37
2018-04-22T03:58:15.373Z,55.35
2018-04-22T03:59:18.003Z,55.35
2018-04-22T04:00:20.496Z,55.34
2018-04-22T04:01:23.002Z,55.35
2018-04-22T04:02:25.479Z,55.35
2018-04-22T04:03:28.035Z,55.40
2018-04-22T04:04:30.531Z,55.42
2018-04-22T04:05:33.053Z,55.44
2018-04-22T04:06:35.617Z,55.40
2018-04-22T04:07:38.106Z,55.37
2018-04-22T04:08:40.598Z,55.37
2018-04-22T04:09:43.101Z,55.38
2018-04-22T04:10:45.648Z,55.39
2018-04-22T04:11:48.210Z,55.40
2018-04-22T04:12:50.697Z,55.41
2018-04-22T04:13:53.175Z,55.41
2018-04-22T04:14:55.686Z,55.42
2018-04-22T04:15:58.190Z,55.43
2018-04-22T04:17:00.696Z,55.45
2018-04-22T04:20:09.893Z,55.37
2018-04-22T04:21:24.357Z,55.39
2018-04-22T04:22:38.667Z,55.41
2018-04-22T04:25:40.757Z,55.39
2018-04-22T04:27:08.053Z,55.37
2018-04-22T04:28:10.538Z,55.35
2018-04-22T04:29:13.021Z,55.41
2018-04-22T04:30:15.532Z,55.50
2018-04-22T04:31:18.030Z,55.58
2018-04-22T04:32:20.539Z,55.55
2018-04-22T04:33:23.051Z,55.56
2018-04-22T04:34:25.578Z,55.59
2018-04-22T04:35:28.069Z,55.62
2018-04-22T04:36:30.571Z,55.61
2018-04-22T04:37:33.152Z,55.66
2018-04-22T04:38:35.656Z,55.67
2018-04-22T04:39:38.137Z,55.65
2018-04-22T04:40:40.620Z,55.63
2018-04-22T04:41:43.125Z,55.57
2018-04-22T04:42:45.635Z,55.52
2018-04-22T04:43:48.146Z,55.55
2018-04-22T04:44:50.633Z,55.54
2018-04-22T04:45:53.133Z,55.56
2018-04-22T04:46:55.694Z,55.58
2018-04-22T04:47:58.234Z,55.69
2018-04-22T04:49:00.745Z,55.69
2018-04-22T04:50:03.282Z,55.68
2018-04-22T04:51:05.804Z,55.70
2018-04-22T04:52:08.326Z,55.70
2018-04-22T04:53:10.831Z,55.69
2018-04-22T04:54:13.414Z,55.68
2018-04-22T04:55:15.959Z,55.67
2018-04-22T04:56:18.450Z,55.76
2018-04-22T04:57:21.007Z,55.72
2018-04-22T04:58:23.484Z,55.72
2018-04-22T04:59:25.958Z,55.75
2018-04-22T05:00:28.449Z,55.76
2018-04-22T05:01:30.936Z,55.72
2018-04-22T05:02:33.427Z,55.83
2018-04-22T05:03:35.936Z,55.81
2018-04-22T05:04:38.425Z,55.80
2018-04-22T05:05:40.960Z,55.76
2018-04-22T05:06:43.450Z,55.72
2018-04-22T05:07:45.967Z,55.70
2018-04-22T05:08:48.457Z,55.70
2018-04-22T05:09:50.945Z,55.72
2018-04-22T05:10:53.438Z,55.71
2018-04-22T05:11:55.936Z,55.70
2018-04-22T05:12:58.466Z,55.73
2018-04-22T05:14:00.970Z,55.73
2018-04-22T05:15:03.447Z,55.74
2018-04-22T05:16:05.939Z,55.76
2018-04-22T05:17:08.416Z,55.78
2018-04-22T05:18:10.931Z,55.79
2018-04-22T05:19:13.423Z,55.79
2018-04-22T05:20:15.895Z,55.79
2018-04-22T05:21:18.380Z,55.80
2018-04-22T05:22:20.869Z,55.81
2018-04-22T05:23:23.390Z,55.80
2018-04-22T05:24:25.867Z,55.80
2018-04-22T05:25:28.368Z,55.80
2018-04-22T05:26:30.856Z,55.79
2018-04-22T05:27:33.346Z,55.83
2018-04-22T05:28:35.823Z,55.87
2018-04-22T05:29:38.304Z,55.92
2018-04-22T05:30:40.797Z,55.93
2018-04-22T05:31:43.321Z,55.92
2018-04-22T05:32:45.882Z,55.94
2018-04-22T05:33:48.441Z,55.91
2018-04-22T05:34:50.930Z,55.91
2018-04-22T05:35:53.464Z,55.91
2018-04-22T05:36:55.945Z,55.94
2018-04-22T05:37:58.478Z,55.96
2018-04-22T05:39:00.979Z,55.95
2018-04-22T05:40:03.469Z,55.95
2018-04-22T05:41:05.949Z,55.98
2018-04-22T05:42:08.513Z,56.02
2018-04-22T05:43:11.021Z,56.02
2018-04-22T05:44:13.634Z,56.03
2018-04-22T05:45:16.195Z,56.07
2018-04-22T05:46:18.758Z,56.08
2018-04-22T05:47:21.316Z,56.08
2018-04-22T05:48:23.874Z,56.08
2018-04-22T05:49:26.354Z,56.07
2018-04-22T05:50:28.939Z,56.08
2018-04-22T05:51:31.454Z,56.09
2018-04-22T05:52:34.009Z,56.09
2018-04-22T05:53:36.571Z,56.10
2018-04-22T05:54:39.047Z,56.10
2018-04-22T05:55:41.589Z,56.10
2018-04-22T05:56:44.151Z,56.12
2018-04-22T05:57:46.683Z,56.12
2018-04-22T05:58:49.271Z,56.15
2018-04-22T05:59:51.832Z,56.16
2018-04-22T06:00:54.394Z,56.16
2018-04-22T06:01:56.885Z,56.16
2018-04-22T06:02:59.513Z,56.18
2018-04-22T06:04:02.001Z,56.17
2018-04-22T06:05:04.539Z,56.18
2018-04-22T06:06:07.051Z,56.19
2018-04-22T06:07:09.546Z,56.21
2018-04-22T06:08:12.038Z,56.24
2018-04-22T06:09:14.564Z,56.22
2018-04-22T06:10:17.053Z,56.22
2018-04-22T06:11:19.555Z,56.26
2018-04-22T06:12:22.115Z,56.27
2018-04-22T06:13:24.701Z,56.25
2018-04-22T06:14:27.216Z,56.24
2018-04-22T06:15:29.709Z,56.22
2018-04-22T06:16:32.281Z,56.22
2018-04-22T06:17:34.780Z,56.25
2018-04-22T06:18:37.298Z,56.25
2018-04-22T06:19:39.767Z,56.25
2018-04-22T06:20:42.261Z,56.27
2018-04-22T06:21:44.775Z,56.29
2018-04-22T06:22:47.308Z,56.29
2018-04-22T06:23:49.866Z,56.30
2018-04-22T06:24:52.350Z,56.29
2018-04-22T06:25:54.913Z,56.31
2018-04-22T06:26:57.414Z,56.30
2018-04-22T06:27:59.929Z,56.30
2018-04-22T06:29:02.426Z,56.32
2018-04-22T06:30:04.945Z,56.33
2018-04-22T06:31:07.430Z,56.31
2018-04-22T06:32:09.962Z,56.33
2018-04-22T06:33:12.480Z,56.35
2018-04-22T06:34:14.971Z,56.35
2018-04-22T06:35:17.452Z,56.38
2018-04-22T06:36:19.936Z,56.40
2018-04-22T06:37:22.407Z,56.43
2018-04-22T06:38:24.915Z,56.45
2018-04-22T06:39:27.478Z,56.45
2018-04-22T06:40:30.042Z,56.49
2018-04-22T06:41:32.547Z,56.50
2018-04-22T06:42:35.041Z,56.51
2018-04-22T06:43:37.568Z,56.51
2018-04-22T06:44:40.071Z,56.50
2018-04-22T06:45:42.579Z,56.50
2018-04-22T06:46:45.092Z,56.49
2018-04-22T06:47:47.651Z,56.49
2018-04-22T06:48:50.135Z,56.49
2018-04-22T06:49:52.648Z,56.50
2018-04-22T06:50:55.157Z,56.52
2018-04-22T06:51:57.684Z,56.51
2018-04-22T06:53:00.246Z,56.49
2018-04-22T06:54:02.733Z,56.51
2018-04-22T06:55:06.199Z,56.50
2018-04-22T06:56:08.746Z,56.49
2018-04-22T06:57:11.240Z,56.51
2018-04-22T06:58:13.788Z,56.52
2018-04-22T06:59:16.263Z,56.52
2018-04-22T07:00:18.767Z,56.52
2018-04-22T07:01:21.317Z,56.55
2018-04-22T07:02:23.837Z,56.55
2018-04-22T07:03:26.333Z,56.55
2018-04-22T07:04:28.910Z,56.57
2018-04-22T07:05:31.403Z,56.49
2018-04-22T07:06:33.898Z,56.50
2018-04-22T07:07:36.410Z,56.53
2018-04-22T07:08:38.930Z,56.56
2018-04-22T07:09:41.444Z,56.57
2018-04-22T07:10:43.968Z,56.58
2018-04-22T07:11:46.450Z,56.58
2018-04-22T07:12:48.991Z,56.56
2018-04-22T07:13:51.475Z,56.57
2018-04-22T07:14:53.955Z,56.57
2018-04-22T07:15:56.476Z,56.58
2018-04-22T07:16:58.965Z,56.58
2018-04-22T07:18:01.457Z,56.59
2018-04-22T07:19:03.923Z,56.59
2018-04-22T07:20:06.501Z,56.62
2018-04-22T07:21:09.005Z,56.63
2018-04-22T07:22:11.484Z,56.64
2018-04-22T07:23:14.011Z,56.65
2018-04-22T07:24:16.553Z,56.69
2018-04-22T07:25:19.115Z,56.61
2018-04-22T07:26:21.636Z,56.72
2018-04-22T07:27:24.159Z,56.79
2018-04-22T07:28:26.891Z,56.86
2018-04-22T07:29:29.367Z,56.94
2018-04-22T07:30:31.864Z,56.85
2018-04-22T07:31:34.387Z,56.84
2018-04-22T07:32:36.912Z,56.84
2018-04-22T07:33:39.420Z,56.76
2018-04-22T07:34:41.930Z,56.81
2018-04-22T07:35:44.418Z,56.79
2018-04-22T07:36:46.931Z,56.79
2018-04-22T07:37:49.425Z,56.81
2018-04-22T07:38:51.944Z,56.79
2018-04-22T07:39:54.451Z,56.84
2018-04-22T07:40:56.962Z,56.78
2018-04-22T07:41:59.460Z,56.73
2018-04-22T07:43:01.943Z,56.74
2018-04-22T07:44:04.420Z,56.40
2018-04-22T07:45:07.064Z,56.24
2018-04-22T07:46:09.743Z,55.42
2018-04-22T07:47:12.287Z,54.09
2018-04-22T07:48:14.774Z,52.98
2018-04-22T07:49:17.284Z,53.31
2018-04-22T07:50:19.926Z,53.07
2018-04-22T07:51:22.418Z,53.03
2018-04-22T07:52:24.887Z,52.52
2018-04-22T07:53:27.434Z,51.87
2018-04-22T07:54:29.908Z,51.84
2018-04-22T07:55:32.419Z,51.64
2018-04-22T07:56:34.977Z,51.65
2018-04-22T07:57:37.538Z,52.18
2018-04-22T07:58:40.098Z,52.35
2018-04-22T07:59:42.621Z,51.67
2018-04-22T08:00:45.114Z,51.69
2018-04-22T08:01:47.780Z,51.28
2018-04-22T08:02:50.340Z,51.19
2018-04-22T08:03:52.899Z,50.80
2018-04-22T08:04:55.392Z,50.86
2018-04-22T08:05:57.897Z,50.67
2018-04-22T08:07:00.421Z,50.74
2018-04-22T08:08:02.924Z,50.79
2018-04-22T08:09:05.439Z,50.65
2018-04-22T08:10:08.004Z,50.50
2018-04-22T08:11:10.601Z,50.43
2018-04-22T08:12:13.120Z,50.47
2018-04-22T08:13:15.611Z,50.27
2018-04-22T08:14:18.117Z,50.23
2018-04-22T08:15:20.673Z,50.23
2018-04-22T08:16:23.205Z,50.17
2018-04-22T08:17:25.771Z,50.12
2018-04-22T08:18:28.293Z,50.05
2018-04-22T08:19:30.814Z,49.91
2018-04-22T08:20:33.312Z,49.96
2018-04-22T08:21:35.809Z,49.95
2018-04-22T08:22:38.367Z,50.02
2018-04-22T08:23:42.025Z,50.04
2018-04-22T08:24:44.614Z,50.02
2018-04-22T08:25:47.105Z,49.95
2018-04-22T08:26:49.631Z,49.89
2018-04-22T08:27:52.127Z,49.75
2018-04-22T08:28:54.641Z,49.68
2018-04-22T08:29:57.155Z,49.70
2018-04-22T08:30:59.774Z,49.76
2018-04-22T08:32:02.276Z,49.81
2018-04-22T08:33:04.784Z,49.79
2018-04-22T08:34:07.269Z,49.76
2018-04-22T08:35:09.802Z,49.78
2018-04-22T08:36:12.322Z,49.75
2018-04-22T08:37:14.825Z,49.64
2018-04-22T08:38:17.324Z,49.62
2018-04-22T08:39:19.812Z,49.60
2018-04-22T08:40:22.319Z,49.59
2018-04-22T08:41:24.845Z,49.50
2018-04-22T08:42:27.323Z,49.39
2018-04-22T08:43:29.876Z,49.32
2018-04-22T08:44:32.435Z,49.28
2018-04-22T08:45:35.154Z,49.29
2018-04-22T08:46:37.678Z,49.27
2018-04-22T08:47:40.171Z,49.21
2018-04-22T08:48:42.675Z,49.18
2018-04-22T08:49:45.234Z,49.19
2018-04-22T08:50:47.724Z,49.23
2018-04-22T08:51:50.254Z,49.17
2018-04-22T08:52:52.815Z,49.13
2018-04-22T08:53:55.374Z,49.10
2018-04-22T08:54:57.860Z,48.92
2018-04-22T08:56:00.393Z,48.85
2018-04-22T08:57:02.893Z,48.80
2018-04-22T08:58:05.408Z,48.81
2018-04-22T08:59:07.971Z,48.78
2018-04-22T09:00:10.473Z,48.83
2018-04-22T09:01:12.986Z,48.88
2018-04-22T09:02:15.463Z,49.01
2018-04-22T09:03:18.472Z,49.00
2018-04-22T09:04:20.974Z,49.03
2018-04-22T09:05:23.470Z,49.02
2018-04-22T09:06:25.964Z,48.98
2018-04-22T09:07:28.452Z,48.92
2018-04-22T09:08:30.946Z,48.85
2018-04-22T09:09:33.452Z,48.67
2018-04-22T09:10:36.288Z,48.53
2018-04-22T09:11:38.797Z,48.39
2018-04-22T09:12:41.581Z,48.45
2018-04-22T09:13:44.097Z,48.38
2018-04-22T09:14:47.223Z,48.30
2018-04-22T09:15:49.849Z,48.26
2018-04-22T09:16:52.414Z,48.29
2018-04-22T09:17:54.914Z,48.40
2018-04-22T09:18:57.431Z,48.35
2018-04-22T09:19:59.990Z,48.39
2018-04-22T09:21:02.554Z,48.45
2018-04-22T09:22:05.108Z,48.52
2018-04-22T09:23:07.668Z,48.56
2018-04-22T09:24:10.232Z,48.61
2018-04-22T09:25:12.726Z,48.65
2018-04-22T09:26:15.248Z,48.68
2018-04-22T09:27:17.763Z,48.76
2018-04-22T09:28:20.253Z,48.82
2018-04-22T09:29:22.806Z,48.86
2018-04-22T09:30:25.313Z,48.93
2018-04-22T09:31:27.803Z,48.98
2018-04-22T09:32:30.291Z,49.08
2018-04-22T09:33:32.796Z,49.12
2018-04-22T09:34:35.302Z,49.17
2018-04-22T09:35:39.703Z,49.21
2018-04-22T09:36:42.285Z,49.29
2018-04-22T09:37:44.787Z,49.35
2018-04-22T09:38:47.277Z,49.41
2018-04-22T09:39:49.784Z,49.43
2018-04-22T09:40:52.323Z,49.45
2018-04-22T09:41:54.883Z,49.50
2018-04-22T09:42:57.439Z,49.54
2018-04-22T09:43:59.963Z,49.60
2018-04-22T09:45:02.486Z,49.65
2018-04-22T09:46:05.012Z,49.68
2018-04-22T09:47:07.523Z,49.71
2018-04-22T09:48:10.031Z,49.75
2018-04-22T09:49:12.521Z,49.79
2018-04-22T09:50:15.052Z,49.83
2018-04-22T09:51:17.587Z,49.84
2018-04-22T09:52:20.091Z,49.87
2018-04-22T09:53:22.633Z,49.90
2018-04-22T09:54:25.125Z,49.96
2018-04-22T09:55:27.612Z,49.98
2018-04-22T09:56:30.119Z,50.01
2018-04-22T09:57:32.635Z,50.05
2018-04-22T09:58:35.129Z,50.09
2018-04-22T09:59:37.618Z,50.09
2018-04-22T10:00:40.119Z,50.11
2018-04-22T10:01:42.622Z,50.13
2018-04-22T10:02:49.119Z,50.13
2018-04-22T10:03:51.609Z,50.13
2018-04-22T10:04:54.176Z,50.15
2018-04-22T10:06:01.618Z,50.20
2018-04-22T10:07:04.117Z,50.21
2018-04-22T10:08:06.620Z,50.22
2018-04-22T10:09:09.099Z,50.23
2018-04-22T10:10:12.088Z,50.23
2018-04-22T10:11:14.570Z,50.23
2018-04-22T10:12:17.105Z,50.23
2018-04-22T10:13:19.582Z,50.26
2018-04-22T10:14:22.127Z,50.27
2018-04-22T10:15:24.687Z,50.26
2018-04-22T10:16:27.272Z,50.28
2018-04-22T10:17:29.787Z,50.28
2018-04-22T10:18:32.259Z,50.28
2018-04-22T10:19:34.759Z,50.29
2018-04-22T10:20:37.280Z,50.33
2018-04-22T10:21:39.781Z,50.30
2018-04-22T10:22:42.374Z,50.30
2018-04-22T10:23:44.859Z,50.31
2018-04-22T10:24:47.344Z,50.33
2018-04-22T10:25:49.878Z,50.34
2018-04-22T10:26:52.437Z,50.36
2018-04-22T10:27:54.947Z,50.37
2018-04-22T10:28:57.451Z,50.38
2018-04-22T10:29:59.971Z,50.38
2018-04-22T10:31:02.474Z,50.39
2018-04-22T10:32:04.982Z,50.39
2018-04-22T10:33:07.487Z,50.39
2018-04-22T10:34:09.985Z,50.39
2018-04-22T10:35:12.498Z,50.40
2018-04-22T10:36:14.989Z,50.41
2018-04-22T10:37:17.478Z,50.43
2018-04-22T10:38:19.997Z,50.44
2018-04-22T10:39:22.496Z,50.46
2018-04-22T10:40:24.993Z,50.47
2018-04-22T10:41:27.481Z,50.47
2018-04-22T10:42:29.981Z,50.47
2018-04-22T10:43:32.474Z,50.47
2018-04-22T10:44:34.948Z,50.48
2018-04-22T10:45:37.440Z,50.48
2018-04-22T10:46:39.935Z,50.49
2018-04-22T10:47:42.419Z,50.50
2018-04-22T10:48:44.946Z,50.50
2018-04-22T10:49:47.441Z,50.49
2018-04-22T10:50:49.939Z,50.49
2018-04-22T10:51:52.437Z,50.49
2018-04-22T10:52:54.943Z,50.49
2018-04-22T10:53:57.467Z,50.48
2018-04-22T10:54:59.958Z,50.49
2018-04-22T10:56:02.452Z,50.49
2018-04-22T10:57:05.439Z,50.47
2018-04-22T10:58:08.519Z,50.48
2018-04-22T10:59:11.035Z,50.49
2018-04-22T11:00:13.754Z,50.50
2018-04-22T11:01:16.461Z,50.50
2018-04-22T11:02:19.129Z,50.52
2018-04-22T11:03:21.650Z,50.52
2018-04-22T11:04:24.448Z,50.54
2018-04-22T11:05:27.013Z,50.55
2018-04-22T11:06:29.636Z,50.57
2018-04-22T11:07:32.158Z,50.58
2018-04-22T11:08:35.013Z,50.59
2018-04-22T11:09:37.980Z,50.61
2018-04-22T11:10:41.152Z,50.61
2018-04-22T11:11:43.765Z,50.62
2018-04-22T11:12:46.276Z,50.61
2018-04-22T11:13:48.811Z,50.61
2018-04-22T11:14:51.341Z,50.60
2018-04-22T11:15:54.052Z,50.60
2018-04-22T11:16:56.639Z,50.62
2018-04-22T11:17:59.210Z,50.60
2018-04-22T11:19:01.706Z,50.59
2018-04-22T11:20:04.242Z,50.58
2018-04-22T11:21:06.733Z,50.58
2018-04-22T11:22:09.351Z,50.57
2018-04-22T11:23:11.865Z,50.56
2018-04-22T11:24:14.365Z,50.55
2018-04-22T11:25:16.993Z,50.54
2018-04-22T11:26:19.513Z,50.55
2018-04-22T11:27:22.063Z,50.54
2018-04-22T11:28:24.521Z,50.53
2018-04-22T11:29:27.005Z,50.52
2018-04-22T11:30:29.530Z,50.53
2018-04-22T11:31:32.021Z,50.51
2018-04-22T11:32:34.508Z,50.51
2018-04-22T11:33:37.001Z,50.53
2018-04-22T11:34:39.557Z,50.53
2018-04-22T11:35:42.051Z,50.52
2018-04-22T11:36:44.541Z,50.52
2018-04-22T11:37:47.072Z,50.52
2018-04-22T11:38:49.593Z,50.52
2018-04-22T11:39:52.080Z,50.51
2018-04-22T11:40:54.567Z,50.52
2018-04-22T11:41:57.105Z,50.53
2018-04-22T11:42:59.603Z,50.53
2018-04-22T11:44:02.108Z,50.54
2018-04-22T11:45:04.709Z,50.53
2018-04-22T11:46:07.314Z,50.53
2018-04-22T11:47:09.879Z,50.52
2018-04-22T11:48:12.365Z,50.51
2018-04-22T11:49:14.858Z,50.52
2018-04-22T11:50:17.359Z,50.51
2018-04-22T11:51:19.855Z,50.52
2018-04-22T11:52:22.357Z,50.53
2018-04-22T11:53:24.835Z,50.53
2018-04-22T11:54:27.359Z,50.53
2018-04-22T11:55:29.867Z,50.51
2018-04-22T11:56:32.809Z,50.53
2018-04-22T11:57:35.676Z,50.52
2018-04-22T11:58:38.441Z,50.53
2018-04-22T11:59:41.002Z,50.54
2018-04-22T12:00:43.563Z,50.55
2018-04-22T12:01:46.120Z,50.56
2018-04-22T12:02:48.645Z,50.56
2018-04-22T12:03:51.157Z,50.57
2018-04-22T12:04:53.649Z,50.56
2018-04-22T12:05:56.156Z,50.55
2018-04-22T12:06:58.649Z,50.55
2018-04-22T12:08:01.174Z,50.55
2018-04-22T12:09:03.665Z,50.55
2018-04-22T12:10:06.193Z,50.56
2018-04-22T12:11:08.681Z,50.57
2018-04-22T12:12:11.217Z,50.56
2018-04-22T12:13:13.705Z,50.57
2018-04-22T12:14:16.228Z,50.56
2018-04-22T12:15:18.741Z,50.56
2018-04-22T12:16:21.229Z,50.57
2018-04-22T12:17:23.817Z,50.58
2018-04-22T12:18:26.365Z,50.58
2018-04-22T12:19:28.933Z,50.58
2018-04-22T12:20:31.512Z,50.58
2018-04-22T12:21:34.045Z,50.58
2018-04-22T12:22:36.571Z,50.58
2018-04-22T12:23:39.077Z,50.60
2018-04-22T12:24:41.577Z,50.61
2018-04-22T12:25:44.331Z,50.60
2018-04-22T12:26:46.844Z,50.60
2018-04-22T12:27:49.341Z,50.61
2018-04-22T12:28:51.835Z,50.60
2018-04-22T12:29:54.334Z,50.60
2018-04-22T12:30:56.953Z,50.61
2018-04-22T12:31:59.546Z,50.62
2018-04-22T12:33:02.049Z,50.63
2018-04-22T12:34:04.640Z,50.63
2018-04-22T12:35:07.134Z,50.61
2018-04-22T12:36:09.683Z,50.62
2018-04-22T12:37:12.183Z,50.62
2018-04-22T12:38:14.678Z,50.64
2018-04-22T12:39:17.363Z,50.67
2018-04-22T12:40:19.923Z,50.70
2018-04-22T12:41:22.414Z,50.71
2018-04-22T12:42:24.935Z,50.73
2018-04-22T12:43:27.423Z,50.74
2018-04-22T12:44:29.959Z,50.75
2018-04-22T12:45:32.456Z,50.77
2018-04-22T12:46:34.977Z,50.78
2018-04-22T12:47:37.479Z,50.77
2018-04-22T12:48:40.020Z,50.72
2018-04-22T12:49:42.553Z,50.74
2018-04-22T12:50:45.113Z,50.77
2018-04-22T12:51:47.677Z,50.79
2018-04-22T12:52:50.235Z,50.82
2018-04-22T12:53:52.804Z,50.84
2018-04-22T12:54:55.219Z,50.86
2018-04-22T12:55:57.709Z,50.89
2018-04-22T12:57:00.190Z,50.91
2018-04-22T12:58:02.737Z,50.94
2018-04-22T12:59:05.263Z,50.95
2018-04-22T13:00:07.849Z,50.95
2018-04-22T13:01:10.403Z,50.99
2018-04-22T13:02:13.005Z,50.96
2018-04-22T13:03:15.494Z,50.97
2018-04-22T13:04:18.087Z,50.97
2018-04-22T13:05:20.654Z,50.98
2018-04-22T13:06:23.135Z,50.98
2018-04-22T13:07:25.667Z,50.98
2018-04-22T13:08:28.222Z,50.98
2018-04-22T13:09:30.788Z,50.99
2018-04-22T13:10:33.449Z,51.00
2018-04-22T13:11:35.951Z,51.01
2018-04-22T13:12:38.443Z,51.02
2018-04-22T13:13:40.932Z,51.02
2018-04-22T13:14:43.449Z,51.03
2018-04-22T13:15:45.922Z,51.03
2018-04-22T13:16:48.420Z,51.05
2018-04-22T13:17:50.958Z,51.08
2018-04-22T13:18:53.521Z,51.06
2018-04-22T13:19:56.080Z,51.07
2018-04-22T13:20:58.588Z,51.07
2018-04-22T13:22:01.096Z,51.06
2018-04-22T13:23:03.603Z,51.05
2018-04-22T13:24:06.114Z,51.06
2018-04-22T13:25:08.655Z,51.08
2018-04-22T13:26:11.131Z,51.08
2018-04-22T13:27:13.692Z,51.07
2018-04-22T13:28:16.252Z,51.11
2018-04-22T13:29:19.799Z,51.15
2018-04-22T13:30:24.893Z,51.16